sensor_id;sensor_type;location;lat;lon;timestamp;temperature;humidity
1129;DHT22;553;51.038;7.216;2023-04-15T00:01:08;8.50;89.60
1129;DHT22;553;51.038;7.216;2023-04-15T00:03:35;8.40;90.20
1129;DHT22;553;51.038;7.216;2023-04-15T00:06:02;8.50;90.30
1129;DHT22;553;51.038;7.216;2023-04-15T00:08:30;8.40;90.00
1129;DHT22;553;51.038;7.216;2023-04-15T00:10:56;8.40;90.50
1129;DHT22;553;51.038;7.216;2023-04-15T00:13:28;8.40;90.70
1129;DHT22;553;51.038;7.216;2023-04-15T00:15:55;8.40;90.50
1129;DHT22;553;51.038;7.216;2023-04-15T00:18:22;8.40;90.20
1129;DHT22;553;51.038;7.216;2023-04-15T00:20:49;8.40;90.80
1129;DHT22;553;51.038;7.216;2023-04-15T00:23:16;8.40;90.20
1129;DHT22;553;51.038;7.216;2023-04-15T00:25:43;8.40;90.30
1129;DHT22;553;51.038;7.216;2023-04-15T00:28:10;8.30;90.70
1129;DHT22;553;51.038;7.216;2023-04-15T00:30:37;8.30;91.10
1129;DHT22;553;51.038;7.216;2023-04-15T00:33:04;8.30;90.90
1129;DHT22;553;51.038;7.216;2023-04-15T00:35:31;8.20;90.90
1129;DHT22;553;51.038;7.216;2023-04-15T00:37:58;8.20;90.90
1129;DHT22;553;51.038;7.216;2023-04-15T00:40:25;8.20;91.90
1129;DHT22;553;51.038;7.216;2023-04-15T00:42:53;8.10;91.60
1129;DHT22;553;51.038;7.216;2023-04-15T00:45:20;8.10;92.10
1129;DHT22;553;51.038;7.216;2023-04-15T00:47:46;8.10;91.80
1129;DHT22;553;51.038;7.216;2023-04-15T00:50:13;8.10;91.90
1129;DHT22;553;51.038;7.216;2023-04-15T00:52:40;8.10;92.10
1129;DHT22;553;51.038;7.216;2023-04-15T00:55:08;8.00;92.40
1129;DHT22;553;51.038;7.216;2023-04-15T00:57:35;7.90;92.80
1129;DHT22;553;51.038;7.216;2023-04-15T01:00:03;7.90;92.90
1129;DHT22;553;51.038;7.216;2023-04-15T01:02:31;7.90;92.80
1129;DHT22;553;51.038;7.216;2023-04-15T01:05:01;7.90;93.30
1129;DHT22;553;51.038;7.216;2023-04-15T01:07:28;7.80;93.20
1129;DHT22;553;51.038;7.216;2023-04-15T01:09:55;7.90;93.20
1129;DHT22;553;51.038;7.216;2023-04-15T01:12:23;7.90;93.60
1129;DHT22;553;51.038;7.216;2023-04-15T01:14:53;7.90;93.80
1129;DHT22;553;51.038;7.216;2023-04-15T01:17:20;7.90;94.10
1129;DHT22;553;51.038;7.216;2023-04-15T01:19:47;7.80;94.00
1129;DHT22;553;51.038;7.216;2023-04-15T01:22:14;7.80;94.10
1129;DHT22;553;51.038;7.216;2023-04-15T01:24:45;7.80;94.30
1129;DHT22;553;51.038;7.216;2023-04-15T01:27:17;7.70;94.60
1129;DHT22;553;51.038;7.216;2023-04-15T01:29:44;7.70;94.60
1129;DHT22;553;51.038;7.216;2023-04-15T01:32:11;7.60;95.00
1129;DHT22;553;51.038;7.216;2023-04-15T01:34:38;7.60;94.90
1129;DHT22;553;51.038;7.216;2023-04-15T01:37:05;7.50;95.10
1129;DHT22;553;51.038;7.216;2023-04-15T01:39:31;7.60;95.20
1129;DHT22;553;51.038;7.216;2023-04-15T01:41:59;7.50;95.50
1129;DHT22;553;51.038;7.216;2023-04-15T01:44:25;7.60;95.50
1129;DHT22;553;51.038;7.216;2023-04-15T01:46:53;7.60;95.40
1129;DHT22;553;51.038;7.216;2023-04-15T01:49:19;7.60;95.50
1129;DHT22;553;51.038;7.216;2023-04-15T01:51:46;7.50;95.40
1129;DHT22;553;51.038;7.216;2023-04-15T01:54:13;7.60;95.40
1129;DHT22;553;51.038;7.216;2023-04-15T01:56:40;7.60;95.40
1129;DHT22;553;51.038;7.216;2023-04-15T01:59:06;7.50;95.60
1129;DHT22;553;51.038;7.216;2023-04-15T02:01:34;7.50;95.80
1129;DHT22;553;51.038;7.216;2023-04-15T02:04:01;7.50;95.70
1129;DHT22;553;51.038;7.216;2023-04-15T02:06:30;7.50;95.80
1129;DHT22;553;51.038;7.216;2023-04-15T02:08:57;7.50;95.60
1129;DHT22;553;51.038;7.216;2023-04-15T02:11:24;7.60;95.50
1129;DHT22;553;51.038;7.216;2023-04-15T02:13:51;7.60;95.70
1129;DHT22;553;51.038;7.216;2023-04-15T02:16:18;7.50;95.90
1129;DHT22;553;51.038;7.216;2023-04-15T02:18:46;7.50;95.90
1129;DHT22;553;51.038;7.216;2023-04-15T02:21:13;7.40;96.20
1129;DHT22;553;51.038;7.216;2023-04-15T02:23:40;7.40;96.50
1129;DHT22;553;51.038;7.216;2023-04-15T02:26:07;7.40;96.60
1129;DHT22;553;51.038;7.216;2023-04-15T02:28:34;7.40;96.60
1129;DHT22;553;51.038;7.216;2023-04-15T02:31:07;7.40;96.70
1129;DHT22;553;51.038;7.216;2023-04-15T02:33:35;7.50;96.40
1129;DHT22;553;51.038;7.216;2023-04-15T02:36:03;7.50;96.40
1129;DHT22;553;51.038;7.216;2023-04-15T02:38:29;7.40;96.70
1129;DHT22;553;51.038;7.216;2023-04-15T02:40:57;7.40;96.80
1129;DHT22;553;51.038;7.216;2023-04-15T02:43:24;7.30;97.00
1129;DHT22;553;51.038;7.216;2023-04-15T02:45:51;7.30;97.10
1129;DHT22;553;51.038;7.216;2023-04-15T02:48:19;7.30;97.50
1129;DHT22;553;51.038;7.216;2023-04-15T02:50:46;7.30;97.30
1129;DHT22;553;51.038;7.216;2023-04-15T02:53:14;7.30;97.50
1129;DHT22;553;51.038;7.216;2023-04-15T02:55:40;7.30;97.10
1129;DHT22;553;51.038;7.216;2023-04-15T02:58:08;7.20;97.50
1129;DHT22;553;51.038;7.216;2023-04-15T03:00:35;7.20;97.80
1129;DHT22;553;51.038;7.216;2023-04-15T03:03:03;7.10;97.90
1129;DHT22;553;51.038;7.216;2023-04-15T03:05:31;7.10;98.00
1129;DHT22;553;51.038;7.216;2023-04-15T03:07:59;7.10;98.00
1129;DHT22;553;51.038;7.216;2023-04-15T03:10:26;7.10;97.80
1129;DHT22;553;51.038;7.216;2023-04-15T03:12:53;7.00;98.10
1129;DHT22;553;51.038;7.216;2023-04-15T03:15:22;7.00;98.10
1129;DHT22;553;51.038;7.216;2023-04-15T03:17:51;7.00;98.60
1129;DHT22;553;51.038;7.216;2023-04-15T03:20:18;7.00;98.20
1129;DHT22;553;51.038;7.216;2023-04-15T03:22:46;7.00;98.30
1129;DHT22;553;51.038;7.216;2023-04-15T03:25:13;7.00;98.10
1129;DHT22;553;51.038;7.216;2023-04-15T03:27:40;7.00;98.20
1129;DHT22;553;51.038;7.216;2023-04-15T03:30:08;7.00;98.10
1129;DHT22;553;51.038;7.216;2023-04-15T03:32:36;7.00;98.50
1129;DHT22;553;51.038;7.216;2023-04-15T03:35:05;7.00;98.60
1129;DHT22;553;51.038;7.216;2023-04-15T03:37:32;7.10;98.60
1129;DHT22;553;51.038;7.216;2023-04-15T03:39:59;7.10;98.50
1129;DHT22;553;51.038;7.216;2023-04-15T03:42:25;7.10;98.30
1129;DHT22;553;51.038;7.216;2023-04-15T03:44:52;7.00;98.50
1129;DHT22;553;51.038;7.216;2023-04-15T03:47:19;7.00;98.50
1129;DHT22;553;51.038;7.216;2023-04-15T03:49:46;7.00;98.80
1129;DHT22;553;51.038;7.216;2023-04-15T03:52:13;7.00;98.80
1129;DHT22;553;51.038;7.216;2023-04-15T03:54:39;7.10;99.00
1129;DHT22;553;51.038;7.216;2023-04-15T03:57:06;7.00;98.90
1129;DHT22;553;51.038;7.216;2023-04-15T03:59:33;7.00;98.90
1129;DHT22;553;51.038;7.216;2023-04-15T04:01:59;6.90;99.20
1129;DHT22;553;51.038;7.216;2023-04-15T04:04:26;6.90;99.40
1129;DHT22;553;51.038;7.216;2023-04-15T04:06:53;7.00;99.10
1129;DHT22;553;51.038;7.216;2023-04-15T04:09:20;6.90;99.40
1129;DHT22;553;51.038;7.216;2023-04-15T04:11:46;7.00;99.30
1129;DHT22;553;51.038;7.216;2023-04-15T04:14:13;7.00;99.20
1129;DHT22;553;51.038;7.216;2023-04-15T04:16:40;7.00;99.30
1129;DHT22;553;51.038;7.216;2023-04-15T04:19:06;7.00;99.10
1129;DHT22;553;51.038;7.216;2023-04-15T04:21:33;7.00;99.00
1129;DHT22;553;51.038;7.216;2023-04-15T04:24:00;6.90;98.60
1129;DHT22;553;51.038;7.216;2023-04-15T04:26:27;6.70;99.30
1129;DHT22;553;51.038;7.216;2023-04-15T04:28:54;6.70;99.90
1129;DHT22;553;51.038;7.216;2023-04-15T04:31:21;6.80;99.90
1129;DHT22;553;51.038;7.216;2023-04-15T04:33:47;6.80;99.90
1129;DHT22;553;51.038;7.216;2023-04-15T04:36:14;6.80;99.50
1129;DHT22;553;51.038;7.216;2023-04-15T04:38:41;6.90;99.90
1129;DHT22;553;51.038;7.216;2023-04-15T04:41:08;6.90;99.90
1129;DHT22;553;51.038;7.216;2023-04-15T04:43:35;6.90;99.80
1129;DHT22;553;51.038;7.216;2023-04-15T04:46:01;6.80;99.30
1129;DHT22;553;51.038;7.216;2023-04-15T04:48:28;6.70;99.50
1129;DHT22;553;51.038;7.216;2023-04-15T04:50:55;6.80;99.90
1129;DHT22;553;51.038;7.216;2023-04-15T04:53:21;6.80;99.90
1129;DHT22;553;51.038;7.216;2023-04-15T04:55:48;6.80;99.90
1129;DHT22;553;51.038;7.216;2023-04-15T04:58:15;6.80;99.90
1129;DHT22;553;51.038;7.216;2023-04-15T05:00:41;6.80;99.90
1129;DHT22;553;51.038;7.216;2023-04-15T05:03:08;6.90;99.90
1129;DHT22;553;51.038;7.216;2023-04-15T05:05:35;6.90;99.90
1129;DHT22;553;51.038;7.216;2023-04-15T05:08:05;6.80;99.90
1129;DHT22;553;51.038;7.216;2023-04-15T05:10:31;6.90;99.90
1129;DHT22;553;51.038;7.216;2023-04-15T05:12:58;6.90;99.90
1129;DHT22;553;51.038;7.216;2023-04-15T05:15:25;7.00;99.90
1129;DHT22;553;51.038;7.216;2023-04-15T05:17:51;7.00;99.90
1129;DHT22;553;51.038;7.216;2023-04-15T05:20:18;7.00;99.90
1129;DHT22;553;51.038;7.216;2023-04-15T05:22:45;7.10;99.90
1129;DHT22;553;51.038;7.216;2023-04-15T05:25:11;7.10;99.90
1129;DHT22;553;51.038;7.216;2023-04-15T05:27:39;7.20;99.60
1129;DHT22;553;51.038;7.216;2023-04-15T05:30:06;7.30;99.10
1129;DHT22;553;51.038;7.216;2023-04-15T05:32:34;7.40;98.80
1129;DHT22;553;51.038;7.216;2023-04-15T05:35:01;7.50;98.70
1129;DHT22;553;51.038;7.216;2023-04-15T05:37:27;7.60;98.60
1129;DHT22;553;51.038;7.216;2023-04-15T05:39:54;7.70;98.50
1129;DHT22;553;51.038;7.216;2023-04-15T05:42:22;7.80;98.60
1129;DHT22;553;51.038;7.216;2023-04-15T05:44:48;7.80;98.50
1129;DHT22;553;51.038;7.216;2023-04-15T05:47:15;7.90;98.30
1129;DHT22;553;51.038;7.216;2023-04-15T05:49:42;7.90;97.90
1129;DHT22;553;51.038;7.216;2023-04-15T05:52:09;8.10;97.50
1129;DHT22;553;51.038;7.216;2023-04-15T05:54:35;8.20;97.20
1129;DHT22;553;51.038;7.216;2023-04-15T05:57:02;8.20;96.70
1129;DHT22;553;51.038;7.216;2023-04-15T05:59:29;8.30;96.20
1129;DHT22;553;51.038;7.216;2023-04-15T06:01:56;8.40;96.30
1129;DHT22;553;51.038;7.216;2023-04-15T06:04:23;8.60;95.50
1129;DHT22;553;51.038;7.216;2023-04-15T06:06:50;8.80;95.20
1129;DHT22;553;51.038;7.216;2023-04-15T06:09:17;9.00;94.50
1129;DHT22;553;51.038;7.216;2023-04-15T06:11:43;9.20;93.60
1129;DHT22;553;51.038;7.216;2023-04-15T06:14:10;9.50;93.00
1129;DHT22;553;51.038;7.216;2023-04-15T06:16:37;9.70;92.10
1129;DHT22;553;51.038;7.216;2023-04-15T06:19:03;10.00;91.50
1129;DHT22;553;51.038;7.216;2023-04-15T06:21:30;10.10;91.40
1129;DHT22;553;51.038;7.216;2023-04-15T06:23:58;10.30;90.70
1129;DHT22;553;51.038;7.216;2023-04-15T06:26:27;10.40;90.50
1129;DHT22;553;51.038;7.216;2023-04-15T06:28:54;10.40;90.60
1129;DHT22;553;51.038;7.216;2023-04-15T06:31:21;10.60;90.50
1129;DHT22;553;51.038;7.216;2023-04-15T06:33:48;10.70;90.60
1129;DHT22;553;51.038;7.216;2023-04-15T06:36:14;10.80;90.40
1129;DHT22;553;51.038;7.216;2023-04-15T06:38:41;10.80;90.10
1129;DHT22;553;51.038;7.216;2023-04-15T06:41:08;10.70;90.20
1129;DHT22;553;51.038;7.216;2023-04-15T06:43:35;10.50;91.00
1129;DHT22;553;51.038;7.216;2023-04-15T06:46:01;10.40;91.70
1129;DHT22;553;51.038;7.216;2023-04-15T06:48:28;10.40;92.40
1129;DHT22;553;51.038;7.216;2023-04-15T06:50:55;10.40;93.20
1129;DHT22;553;51.038;7.216;2023-04-15T06:53:22;10.40;92.90
1129;DHT22;553;51.038;7.216;2023-04-15T06:55:48;10.40;93.20
1129;DHT22;553;51.038;7.216;2023-04-15T06:58:15;10.50;93.60
1129;DHT22;553;51.038;7.216;2023-04-15T07:00:42;10.60;93.00
1129;DHT22;553;51.038;7.216;2023-04-15T07:03:11;10.70;92.40
1129;DHT22;553;51.038;7.216;2023-04-15T07:05:38;10.80;91.90
1129;DHT22;553;51.038;7.216;2023-04-15T07:08:06;10.80;91.90
1129;DHT22;553;51.038;7.216;2023-04-15T07:10:33;11.00;92.10
1129;DHT22;553;51.038;7.216;2023-04-15T07:13:00;11.30;91.00
1129;DHT22;553;51.038;7.216;2023-04-15T07:15:27;11.20;90.10
1129;DHT22;553;51.038;7.216;2023-04-15T07:17:54;11.10;90.60
1129;DHT22;553;51.038;7.216;2023-04-15T07:20:21;11.10;90.30
1129;DHT22;553;51.038;7.216;2023-04-15T07:22:48;11.00;90.40
1129;DHT22;553;51.038;7.216;2023-04-15T07:25:15;10.90;91.10
1129;DHT22;553;51.038;7.216;2023-04-15T07:27:43;10.90;91.10
1129;DHT22;553;51.038;7.216;2023-04-15T07:30:10;11.00;90.40
1129;DHT22;553;51.038;7.216;2023-04-15T07:32:37;10.90;89.70
1129;DHT22;553;51.038;7.216;2023-04-15T07:35:05;11.00;90.70
1129;DHT22;553;51.038;7.216;2023-04-15T07:37:32;11.10;89.90
1129;DHT22;553;51.038;7.216;2023-04-15T07:39:59;11.00;89.40
1129;DHT22;553;51.038;7.216;2023-04-15T07:42:25;11.10;89.50
1129;DHT22;553;51.038;7.216;2023-04-15T07:44:52;11.00;88.90
1129;DHT22;553;51.038;7.216;2023-04-15T07:47:19;11.00;89.80
1129;DHT22;553;51.038;7.216;2023-04-15T07:49:46;11.00;89.30
1129;DHT22;553;51.038;7.216;2023-04-15T07:52:12;11.10;90.10
1129;DHT22;553;51.038;7.216;2023-04-15T07:54:39;11.30;90.00
1129;DHT22;553;51.038;7.216;2023-04-15T07:57:06;11.40;90.00
1129;DHT22;553;51.038;7.216;2023-04-15T07:59:33;11.40;89.20
1129;DHT22;553;51.038;7.216;2023-04-15T08:02:00;11.50;88.30
1129;DHT22;553;51.038;7.216;2023-04-15T08:04:26;11.40;89.00
1129;DHT22;553;51.038;7.216;2023-04-15T08:06:54;11.40;89.10
1129;DHT22;553;51.038;7.216;2023-04-15T08:09:21;11.40;88.70
1129;DHT22;553;51.038;7.216;2023-04-15T08:11:48;11.40;89.40
1129;DHT22;553;51.038;7.216;2023-04-15T08:14:16;11.40;89.10
1129;DHT22;553;51.038;7.216;2023-04-15T08:16:43;11.40;89.10
1129;DHT22;553;51.038;7.216;2023-04-15T08:19:11;11.40;88.90
1129;DHT22;553;51.038;7.216;2023-04-15T08:21:38;11.60;89.80
1129;DHT22;553;51.038;7.216;2023-04-15T08:24:05;11.80;88.90
1129;DHT22;553;51.038;7.216;2023-04-15T08:26:32;12.20;88.10
1129;DHT22;553;51.038;7.216;2023-04-15T08:28:59;12.40;86.30
1129;DHT22;553;51.038;7.216;2023-04-15T08:31:26;12.40;85.40
1129;DHT22;553;51.038;7.216;2023-04-15T08:33:56;12.30;85.70
1129;DHT22;553;51.038;7.216;2023-04-15T08:36:23;12.60;85.00
1129;DHT22;553;51.038;7.216;2023-04-15T08:38:50;12.40;83.90
1129;DHT22;553;51.038;7.216;2023-04-15T08:41:23;12.30;84.80
1129;DHT22;553;51.038;7.216;2023-04-15T08:43:57;12.20;84.40
1129;DHT22;553;51.038;7.216;2023-04-15T08:46:23;12.20;83.70
1129;DHT22;553;51.038;7.216;2023-04-15T08:48:51;12.20;84.50
1129;DHT22;553;51.038;7.216;2023-04-15T08:51:19;12.20;85.00
1129;DHT22;553;51.038;7.216;2023-04-15T08:53:49;12.20;84.80
1129;DHT22;553;51.038;7.216;2023-04-15T08:56:15;12.20;85.20
1129;DHT22;553;51.038;7.216;2023-04-15T08:58:44;12.20;84.80
1129;DHT22;553;51.038;7.216;2023-04-15T09:01:12;12.20;84.00
1129;DHT22;553;51.038;7.216;2023-04-15T09:03:39;12.10;84.30
1129;DHT22;553;51.038;7.216;2023-04-15T09:06:06;12.20;85.10
1129;DHT22;553;51.038;7.216;2023-04-15T09:08:33;12.30;85.70
1129;DHT22;553;51.038;7.216;2023-04-15T09:11:02;12.40;85.10
1129;DHT22;553;51.038;7.216;2023-04-15T09:13:29;12.60;85.40
1129;DHT22;553;51.038;7.216;2023-04-15T09:15:56;12.80;84.40
1129;DHT22;553;51.038;7.216;2023-04-15T09:18:28;12.90;83.40
1129;DHT22;553;51.038;7.216;2023-04-15T09:20:55;13.00;84.40
1129;DHT22;553;51.038;7.216;2023-04-15T09:23:31;13.20;84.30
1129;DHT22;553;51.038;7.216;2023-04-15T09:25:58;13.40;81.60
1129;DHT22;553;51.038;7.216;2023-04-15T09:28:25;13.50;80.60
1129;DHT22;553;51.038;7.216;2023-04-15T09:30:55;13.50;80.40
1129;DHT22;553;51.038;7.216;2023-04-15T09:33:24;13.40;80.50
1129;DHT22;553;51.038;7.216;2023-04-15T09:35:59;13.40;80.80
1129;DHT22;553;51.038;7.216;2023-04-15T09:38:26;13.50;81.50
1129;DHT22;553;51.038;7.216;2023-04-15T09:40:53;13.50;81.40
1129;DHT22;553;51.038;7.216;2023-04-15T09:43:20;13.50;81.40
1129;DHT22;553;51.038;7.216;2023-04-15T09:45:52;13.70;81.60
1129;DHT22;553;51.038;7.216;2023-04-15T09:48:23;13.70;81.20
1129;DHT22;553;51.038;7.216;2023-04-15T09:50:52;14.00;82.50
1129;DHT22;553;51.038;7.216;2023-04-15T09:53:20;14.30;80.90
1129;DHT22;553;51.038;7.216;2023-04-15T09:55:53;14.30;80.90
1129;DHT22;553;51.038;7.216;2023-04-15T10:00:50;14.50;80.20
1129;DHT22;553;51.038;7.216;2023-04-15T10:03:37;14.50;80.20
1129;DHT22;553;51.038;7.216;2023-04-15T10:06:05;14.50;80.00
1129;DHT22;553;51.038;7.216;2023-04-15T10:08:33;14.30;81.30
1129;DHT22;553;51.038;7.216;2023-04-15T10:11:01;14.00;82.20
1129;DHT22;553;51.038;7.216;2023-04-15T10:13:31;13.80;83.50
1129;DHT22;553;51.038;7.216;2023-04-15T10:16:09;13.80;82.40
1129;DHT22;553;51.038;7.216;2023-04-15T10:18:44;13.90;82.00
1129;DHT22;553;51.038;7.216;2023-04-15T10:21:11;13.90;82.10
1129;DHT22;553;51.038;7.216;2023-04-15T10:23:40;13.70;82.70
1129;DHT22;553;51.038;7.216;2023-04-15T10:26:06;14.20;83.80
1129;DHT22;553;51.038;7.216;2023-04-15T10:28:33;14.70;81.10
1129;DHT22;553;51.038;7.216;2023-04-15T10:31:00;14.40;80.80
1129;DHT22;553;51.038;7.216;2023-04-15T10:33:28;14.10;81.20
1129;DHT22;553;51.038;7.216;2023-04-15T10:35:55;13.90;82.60
1129;DHT22;553;51.038;7.216;2023-04-15T10:38:41;13.80;83.20
1129;DHT22;553;51.038;7.216;2023-04-15T10:41:26;13.70;84.30
1129;DHT22;553;51.038;7.216;2023-04-15T10:43:55;13.30;85.30
1129;DHT22;553;51.038;7.216;2023-04-15T10:46:43;13.20;85.50
1129;DHT22;553;51.038;7.216;2023-04-15T10:49:15;13.20;86.30
1129;DHT22;553;51.038;7.216;2023-04-15T10:51:49;13.30;86.50
1129;DHT22;553;51.038;7.216;2023-04-15T10:54:31;13.20;85.60
1129;DHT22;553;51.038;7.216;2023-04-15T10:59:33;12.90;86.60
1129;DHT22;553;51.038;7.216;2023-04-15T11:02:03;13.00;87.00
1129;DHT22;553;51.038;7.216;2023-04-15T11:04:53;13.10;87.70
1129;DHT22;553;51.038;7.216;2023-04-15T11:07:51;13.00;86.70
1129;DHT22;553;51.038;7.216;2023-04-15T11:15:43;12.40;89.00
1129;DHT22;553;51.038;7.216;2023-04-15T11:18:20;12.30;89.80
1129;DHT22;553;51.038;7.216;2023-04-15T11:20:49;12.30;90.20
1129;DHT22;553;51.038;7.216;2023-04-15T11:23:42;12.20;90.40
1129;DHT22;553;51.038;7.216;2023-04-15T11:26:10;12.10;90.80
1129;DHT22;553;51.038;7.216;2023-04-15T11:28:42;12.10;91.40
1129;DHT22;553;51.038;7.216;2023-04-15T11:31:11;12.20;90.80
1129;DHT22;553;51.038;7.216;2023-04-15T11:33:59;12.30;90.80
1129;DHT22;553;51.038;7.216;2023-04-15T11:36:29;12.30;90.40
1129;DHT22;553;51.038;7.216;2023-04-15T11:38:58;12.30;90.60
1129;DHT22;553;51.038;7.216;2023-04-15T11:41:25;12.20;90.60
1129;DHT22;553;51.038;7.216;2023-04-15T11:43:52;12.40;90.70
1129;DHT22;553;51.038;7.216;2023-04-15T11:46:19;12.30;90.60
1129;DHT22;553;51.038;7.216;2023-04-15T11:48:47;12.10;90.90
1129;DHT22;553;51.038;7.216;2023-04-15T11:51:14;12.00;91.80
1129;DHT22;553;51.038;7.216;2023-04-15T11:53:45;11.80;92.60
1129;DHT22;553;51.038;7.216;2023-04-15T11:56:23;11.80;92.40
1129;DHT22;553;51.038;7.216;2023-04-15T11:58:55;11.80;92.70
1129;DHT22;553;51.038;7.216;2023-04-15T12:01:36;11.70;93.10
1129;DHT22;553;51.038;7.216;2023-04-15T12:04:11;11.80;93.30
1129;DHT22;553;51.038;7.216;2023-04-15T12:06:39;11.90;93.10
1129;DHT22;553;51.038;7.216;2023-04-15T12:09:11;11.90;93.20
1129;DHT22;553;51.038;7.216;2023-04-15T12:11:58;11.70;93.20
1129;DHT22;553;51.038;7.216;2023-04-15T12:14:26;11.70;94.10
1129;DHT22;553;51.038;7.216;2023-04-15T12:17:01;11.80;94.00
1129;DHT22;553;51.038;7.216;2023-04-15T12:22:07;11.70;94.10
1129;DHT22;553;51.038;7.216;2023-04-15T12:24:35;11.60;94.50
1129;DHT22;553;51.038;7.216;2023-04-15T12:27:06;11.60;94.40
1129;DHT22;553;51.038;7.216;2023-04-15T12:29:35;11.60;95.00
1129;DHT22;553;51.038;7.216;2023-04-15T12:32:05;11.50;94.70
1129;DHT22;553;51.038;7.216;2023-04-15T12:34:48;11.50;94.80
1129;DHT22;553;51.038;7.216;2023-04-15T12:37:16;11.40;95.40
1129;DHT22;553;51.038;7.216;2023-04-15T12:39:45;11.30;95.90
1129;DHT22;553;51.038;7.216;2023-04-15T12:42:15;11.90;95.90
1129;DHT22;553;51.038;7.216;2023-04-15T12:44:42;12.20;92.20
1129;DHT22;553;51.038;7.216;2023-04-15T12:47:09;11.90;93.80
1129;DHT22;553;51.038;7.216;2023-04-15T12:49:37;11.50;95.20
1129;DHT22;553;51.038;7.216;2023-04-15T12:52:05;11.20;96.40
1129;DHT22;553;51.038;7.216;2023-04-15T12:54:32;11.10;97.30
1129;DHT22;553;51.038;7.216;2023-04-15T12:56:59;11.00;97.80
1129;DHT22;553;51.038;7.216;2023-04-15T12:59:27;11.00;97.70
1129;DHT22;553;51.038;7.216;2023-04-15T13:01:54;11.20;98.50
1129;DHT22;553;51.038;7.216;2023-04-15T13:04:21;12.00;95.90
1129;DHT22;553;51.038;7.216;2023-04-15T13:06:48;12.00;93.90
1129;DHT22;553;51.038;7.216;2023-04-15T13:09:15;11.50;96.70
1129;DHT22;553;51.038;7.216;2023-04-15T13:11:42;12.20;95.20
1129;DHT22;553;51.038;7.216;2023-04-15T13:14:10;11.90;97.90
1129;DHT22;553;51.038;7.216;2023-04-15T13:16:38;12.30;95.50
1129;DHT22;553;51.038;7.216;2023-04-15T13:19:05;11.80;97.20
1129;DHT22;553;51.038;7.216;2023-04-15T13:21:32;11.30;99.90
1129;DHT22;553;51.038;7.216;2023-04-15T13:24:02;11.10;99.90
1129;DHT22;553;51.038;7.216;2023-04-15T13:26:29;11.10;99.90
1129;DHT22;553;51.038;7.216;2023-04-15T13:28:57;11.00;99.90
1129;DHT22;553;51.038;7.216;2023-04-15T13:31:24;10.90;99.90
1129;DHT22;553;51.038;7.216;2023-04-15T13:33:50;10.80;99.90
1129;DHT22;553;51.038;7.216;2023-04-15T13:36:17;10.80;99.90
1129;DHT22;553;51.038;7.216;2023-04-15T13:38:44;10.90;99.90
1129;DHT22;553;51.038;7.216;2023-04-15T13:41:11;10.90;99.90
1129;DHT22;553;51.038;7.216;2023-04-15T13:43:38;11.00;99.90
1129;DHT22;553;51.038;7.216;2023-04-15T13:46:06;11.10;99.90
1129;DHT22;553;51.038;7.216;2023-04-15T13:48:32;11.00;99.90
1129;DHT22;553;51.038;7.216;2023-04-15T13:50:59;11.00;99.90
1129;DHT22;553;51.038;7.216;2023-04-15T13:53:26;11.10;99.90
1129;DHT22;553;51.038;7.216;2023-04-15T13:56:08;11.00;99.90
1129;DHT22;553;51.038;7.216;2023-04-15T13:58:36;11.10;99.90
1129;DHT22;553;51.038;7.216;2023-04-15T14:01:04;11.10;99.90
1129;DHT22;553;51.038;7.216;2023-04-15T14:03:35;11.20;99.90
1129;DHT22;553;51.038;7.216;2023-04-15T14:06:04;11.10;99.90
1129;DHT22;553;51.038;7.216;2023-04-15T14:08:31;11.60;99.90
1129;DHT22;553;51.038;7.216;2023-04-15T14:10:59;11.30;99.90
1129;DHT22;553;51.038;7.216;2023-04-15T14:13:26;11.10;99.90
1129;DHT22;553;51.038;7.216;2023-04-15T14:15:52;11.10;99.90
1129;DHT22;553;51.038;7.216;2023-04-15T14:18:19;11.10;99.90
1129;DHT22;553;51.038;7.216;2023-04-15T14:20:46;11.10;99.90
1129;DHT22;553;51.038;7.216;2023-04-15T14:23:13;11.00;99.90
1129;DHT22;553;51.038;7.216;2023-04-15T14:25:39;11.00;99.90
1129;DHT22;553;51.038;7.216;2023-04-15T14:28:06;11.00;99.90
1129;DHT22;553;51.038;7.216;2023-04-15T14:30:33;11.00;99.90
1129;DHT22;553;51.038;7.216;2023-04-15T14:33:00;10.90;99.90
1129;DHT22;553;51.038;7.216;2023-04-15T14:35:27;10.90;99.90
1129;DHT22;553;51.038;7.216;2023-04-15T14:37:54;11.00;99.90
1129;DHT22;553;51.038;7.216;2023-04-15T14:40:21;10.90;99.90
1129;DHT22;553;51.038;7.216;2023-04-15T14:42:48;10.90;99.90
1129;DHT22;553;51.038;7.216;2023-04-15T14:45:15;10.90;99.90
1129;DHT22;553;51.038;7.216;2023-04-15T14:47:43;10.80;99.90
1129;DHT22;553;51.038;7.216;2023-04-15T14:50:10;10.80;99.90
1129;DHT22;553;51.038;7.216;2023-04-15T14:52:37;10.70;99.90
1129;DHT22;553;51.038;7.216;2023-04-15T14:55:08;10.70;99.90
1129;DHT22;553;51.038;7.216;2023-04-15T14:57:40;10.80;99.90
1129;DHT22;553;51.038;7.216;2023-04-15T15:00:09;10.80;99.90
1129;DHT22;553;51.038;7.216;2023-04-15T15:02:37;10.70;99.90
1129;DHT22;553;51.038;7.216;2023-04-15T15:05:06;10.70;99.90
1129;DHT22;553;51.038;7.216;2023-04-15T15:07:37;10.70;99.90
1129;DHT22;553;51.038;7.216;2023-04-15T15:10:04;10.60;99.90
1129;DHT22;553;51.038;7.216;2023-04-15T15:12:32;10.50;99.90
1129;DHT22;553;51.038;7.216;2023-04-15T15:14:59;10.50;99.90
1129;DHT22;553;51.038;7.216;2023-04-15T15:17:28;10.50;99.90
1129;DHT22;553;51.038;7.216;2023-04-15T15:19:55;10.50;99.90
1129;DHT22;553;51.038;7.216;2023-04-15T15:22:22;10.40;99.90
1129;DHT22;553;51.038;7.216;2023-04-15T15:24:49;10.40;99.90
1129;DHT22;553;51.038;7.216;2023-04-15T15:27:15;10.40;99.90
1129;DHT22;553;51.038;7.216;2023-04-15T15:29:42;10.40;99.90
1129;DHT22;553;51.038;7.216;2023-04-15T15:32:10;10.40;99.90
1129;DHT22;553;51.038;7.216;2023-04-15T15:34:37;10.40;99.90
1129;DHT22;553;51.038;7.216;2023-04-15T15:37:04;10.40;99.90
1129;DHT22;553;51.038;7.216;2023-04-15T15:39:31;10.40;99.90
1129;DHT22;553;51.038;7.216;2023-04-15T15:41:59;10.40;99.90
1129;DHT22;553;51.038;7.216;2023-04-15T15:44:26;10.30;99.90
1129;DHT22;553;51.038;7.216;2023-04-15T15:46:53;10.40;99.90
1129;DHT22;553;51.038;7.216;2023-04-15T15:49:19;10.30;99.90
1129;DHT22;553;51.038;7.216;2023-04-15T15:51:46;10.30;99.90
1129;DHT22;553;51.038;7.216;2023-04-15T15:54:15;10.30;99.90
1129;DHT22;553;51.038;7.216;2023-04-15T15:56:42;11.40;99.90
1129;DHT22;553;51.038;7.216;2023-04-15T15:59:08;11.40;99.90
1129;DHT22;553;51.038;7.216;2023-04-15T16:01:35;11.10;99.90
1129;DHT22;553;51.038;7.216;2023-04-15T16:04:02;10.80;99.90
1129;DHT22;553;51.038;7.216;2023-04-15T16:06:29;10.50;99.90
1129;DHT22;553;51.038;7.216;2023-04-15T16:09:00;10.40;99.90
1129;DHT22;553;51.038;7.216;2023-04-15T16:11:27;10.40;99.90
1129;DHT22;553;51.038;7.216;2023-04-15T16:13:54;10.20;99.90
1129;DHT22;553;51.038;7.216;2023-04-15T16:16:21;10.20;99.90
1129;DHT22;553;51.038;7.216;2023-04-15T16:18:49;10.20;99.90
1129;DHT22;553;51.038;7.216;2023-04-15T16:21:16;10.10;99.90
1129;DHT22;553;51.038;7.216;2023-04-15T16:23:43;10.10;99.90
1129;DHT22;553;51.038;7.216;2023-04-15T16:26:09;10.10;99.90
1129;DHT22;553;51.038;7.216;2023-04-15T16:28:36;10.50;99.90
1129;DHT22;553;51.038;7.216;2023-04-15T16:31:03;10.60;99.90
1129;DHT22;553;51.038;7.216;2023-04-15T16:33:29;10.50;99.90
1129;DHT22;553;51.038;7.216;2023-04-15T16:35:56;10.40;99.90
1129;DHT22;553;51.038;7.216;2023-04-15T16:38:23;10.30;99.90
1129;DHT22;553;51.038;7.216;2023-04-15T16:40:49;10.20;99.90
1129;DHT22;553;51.038;7.216;2023-04-15T16:43:17;10.10;99.90